sensor_id;sensor_type;location;lat;lon;timestamp;pressure;altitude;pressure_sealevel;temperature;humidity
75747;BME280;70632;52.232;21.038;2023-06-26T00:02:21;100247.53;;;20.07;68.66
75747;BME280;70632;52.232;21.038;2023-06-26T00:04:47;100252.72;;;20.10;68.53
75747;BME280;70632;52.232;21.038;2023-06-26T00:07:13;100256.44;;;20.09;68.39
75747;BME280;70632;52.232;21.038;2023-06-26T00:09:38;100250.47;;;20.04;69.07
75747;BME280;70632;52.232;21.038;2023-06-26T00:12:04;100239.75;;;20.02;68.97
75747;BME280;70632;52.232;21.038;2023-06-26T00:14:30;100252.03;;;19.83;69.91
75747;BME280;70632;52.232;21.038;2023-06-26T00:16:56;100239.38;;;19.58;71.10
75747;BME280;70632;52.232;21.038;2023-06-26T00:19:22;100245.78;;;19.70;70.65
75747;BME280;70632;52.232;21.038;2023-06-26T00:21:47;100248.69;;;19.67;70.85
75747;BME280;70632;52.232;21.038;2023-06-26T00:24:14;100254.91;;;19.42;72.15
75747;BME280;70632;52.232;21.038;2023-06-26T00:26:40;100250.41;;;19.42;72.49
75747;BME280;70632;52.232;21.038;2023-06-26T00:29:06;100255.50;;;19.47;72.38
75747;BME280;70632;52.232;21.038;2023-06-26T00:31:32;100240.66;;;19.40;71.71
75747;BME280;70632;52.232;21.038;2023-06-26T00:33:57;100252.66;;;19.36;71.31
75747;BME280;70632;52.232;21.038;2023-06-26T00:36:23;100252.09;;;19.31;71.42
75747;BME280;70632;52.232;21.038;2023-06-26T00:38:52;100251.44;;;19.27;71.83
75747;BME280;70632;52.232;21.038;2023-06-26T00:41:18;100255.34;;;19.36;71.62
75747;BME280;70632;52.232;21.038;2023-06-26T00:43:44;100241.09;;;19.34;71.48
75747;BME280;70632;52.232;21.038;2023-06-26T00:46:12;100246.81;;;19.42;71.03
75747;BME280;70632;52.232;21.038;2023-06-26T00:48:39;100249.50;;;19.42;70.96
75747;BME280;70632;52.232;21.038;2023-06-26T00:51:05;100240.78;;;19.51;70.67
75747;BME280;70632;52.232;21.038;2023-06-26T00:53:32;100233.28;;;19.42;71.17
75747;BME280;70632;52.232;21.038;2023-06-26T00:55:58;100241.22;;;19.45;71.51
75747;BME280;70632;52.232;21.038;2023-06-26T00:58:25;100236.25;;;19.51;71.97
75747;BME280;70632;52.232;21.038;2023-06-26T01:00:51;100243.50;;;19.51;71.94
75747;BME280;70632;52.232;21.038;2023-06-26T01:03:18;100248.59;;;19.55;72.42
75747;BME280;70632;52.232;21.038;2023-06-26T01:05:45;100241.56;;;19.53;72.18
75747;BME280;70632;52.232;21.038;2023-06-26T01:08:12;100232.25;;;19.44;72.81
75747;BME280;70632;52.232;21.038;2023-06-26T01:10:39;100233.00;;;19.34;73.44
75747;BME280;70632;52.232;21.038;2023-06-26T01:13:05;100233.06;;;19.32;73.18
75747;BME280;70632;52.232;21.038;2023-06-26T01:15:31;100234.19;;;19.42;72.88
75747;BME280;70632;52.232;21.038;2023-06-26T01:17:57;100218.34;;;19.24;72.79
75747;BME280;70632;52.232;21.038;2023-06-26T01:20:39;100236.41;;;19.23;73.37
75747;BME280;70632;52.232;21.038;2023-06-26T01:23:14;100228.94;;;19.14;73.49
75747;BME280;70632;52.232;21.038;2023-06-26T01:28:38;100233.84;;;19.22;73.15
75747;BME280;70632;52.232;21.038;2023-06-26T01:31:06;100228.41;;;19.09;73.78
75747;BME280;70632;52.232;21.038;2023-06-26T01:33:32;100230.66;;;19.15;73.78
75747;BME280;70632;52.232;21.038;2023-06-26T01:35:58;100231.78;;;19.25;73.62
75747;BME280;70632;52.232;21.038;2023-06-26T01:38:24;100219.00;;;19.27;73.17
75747;BME280;70632;52.232;21.038;2023-06-26T01:40:51;100228.53;;;19.20;73.17
75747;BME280;70632;52.232;21.038;2023-06-26T01:45:54;100216.16;;;18.91;74.05
75747;BME280;70632;52.232;21.038;2023-06-26T01:48:25;100215.53;;;19.00;73.46
75747;BME280;70632;52.232;21.038;2023-06-26T01:50:53;100211.41;;;19.07;73.32
75747;BME280;70632;52.232;21.038;2023-06-26T01:53:24;100215.94;;;19.06;73.45
75747;BME280;70632;52.232;21.038;2023-06-26T01:56:00;100208.34;;;18.86;73.60
75747;BME280;70632;52.232;21.038;2023-06-26T01:58:29;100216.78;;;18.94;73.14
75747;BME280;70632;52.232;21.038;2023-06-26T02:00:55;100211.72;;;19.02;72.41
75747;BME280;70632;52.232;21.038;2023-06-26T02:03:20;100211.97;;;19.12;71.75
75747;BME280;70632;52.232;21.038;2023-06-26T02:05:50;100206.66;;;18.85;73.08
75747;BME280;70632;52.232;21.038;2023-06-26T02:08:16;100206.97;;;18.93;74.04
75747;BME280;70632;52.232;21.038;2023-06-26T02:10:42;100200.56;;;18.69;75.66
75747;BME280;70632;52.232;21.038;2023-06-26T02:13:08;100211.34;;;18.69;76.59
75747;BME280;70632;52.232;21.038;2023-06-26T02:15:33;100208.00;;;18.51;79.18
75747;BME280;70632;52.232;21.038;2023-06-26T02:17:59;100207.44;;;18.60;78.79
75747;BME280;70632;52.232;21.038;2023-06-26T02:20:25;100203.97;;;18.58;79.05
75747;BME280;70632;52.232;21.038;2023-06-26T02:22:51;100200.72;;;18.53;78.23
75747;BME280;70632;52.232;21.038;2023-06-26T02:25:17;100200.22;;;18.47;77.52
75747;BME280;70632;52.232;21.038;2023-06-26T02:27:43;100195.16;;;18.69;78.03
75747;BME280;70632;52.232;21.038;2023-06-26T02:30:09;100198.59;;;18.44;80.76
75747;BME280;70632;52.232;21.038;2023-06-26T02:32:35;100192.63;;;18.12;81.07
75747;BME280;70632;52.232;21.038;2023-06-26T02:35:01;100200.00;;;18.50;77.19
75747;BME280;70632;52.232;21.038;2023-06-26T02:37:27;100197.84;;;18.69;75.37
75747;BME280;70632;52.232;21.038;2023-06-26T02:39:53;100192.31;;;18.70;75.30
75747;BME280;70632;52.232;21.038;2023-06-26T02:42:18;100190.63;;;18.69;76.22
75747;BME280;70632;52.232;21.038;2023-06-26T02:44:44;100198.97;;;18.52;76.11
75747;BME280;70632;52.232;21.038;2023-06-26T02:47:10;100203.41;;;18.53;75.06
75747;BME280;70632;52.232;21.038;2023-06-26T02:49:35;100204.09;;;18.43;75.66
75747;BME280;70632;52.232;21.038;2023-06-26T02:52:01;100195.31;;;18.53;75.92
75747;BME280;70632;52.232;21.038;2023-06-26T02:54:27;100205.59;;;18.61;76.60
75747;BME280;70632;52.232;21.038;2023-06-26T02:56:53;100203.66;;;18.63;76.16
75747;BME280;70632;52.232;21.038;2023-06-26T02:59:18;100203.78;;;18.61;76.54
75747;BME280;70632;52.232;21.038;2023-06-26T03:01:44;100201.59;;;18.66;76.79
75747;BME280;70632;52.232;21.038;2023-06-26T03:04:10;100199.84;;;18.53;77.23
75747;BME280;70632;52.232;21.038;2023-06-26T03:06:36;100204.09;;;18.43;78.00
75747;BME280;70632;52.232;21.038;2023-06-26T03:09:02;100205.41;;;18.23;78.72
75747;BME280;70632;52.232;21.038;2023-06-26T03:11:28;100208.25;;;18.34;78.65
75747;BME280;70632;52.232;21.038;2023-06-26T03:13:54;100194.97;;;18.85;76.40
75747;BME280;70632;52.232;21.038;2023-06-26T03:16:20;100202.09;;;18.98;75.64
75747;BME280;70632;52.232;21.038;2023-06-26T03:18:45;100200.63;;;18.67;76.81
75747;BME280;70632;52.232;21.038;2023-06-26T03:21:11;100203.72;;;18.35;78.18
75747;BME280;70632;52.232;21.038;2023-06-26T03:23:37;100205.03;;;18.42;78.51
75747;BME280;70632;52.232;21.038;2023-06-26T03:26:03;100201.88;;;18.49;78.80
75747;BME280;70632;52.232;21.038;2023-06-26T03:28:28;100199.16;;;18.49;78.54
75747;BME280;70632;52.232;21.038;2023-06-26T03:30:56;100208.50;;;18.58;78.59
75747;BME280;70632;52.232;21.038;2023-06-26T03:33:22;100199.47;;;18.72;77.79
75747;BME280;70632;52.232;21.038;2023-06-26T03:35:48;100201.22;;;18.73;78.49
75747;BME280;70632;52.232;21.038;2023-06-26T03:38:14;100201.88;;;18.89;77.87
75747;BME280;70632;52.232;21.038;2023-06-26T03:40:40;100197.34;;;18.89;77.82
75747;BME280;70632;52.232;21.038;2023-06-26T03:43:05;100201.47;;;18.95;78.10
75747;BME280;70632;52.232;21.038;2023-06-26T03:45:31;100203.59;;;18.90;78.41
75747;BME280;70632;52.232;21.038;2023-06-26T03:47:56;100207.50;;;18.98;78.26
75747;BME280;70632;52.232;21.038;2023-06-26T03:50:22;100207.88;;;19.19;76.95
75747;BME280;70632;52.232;21.038;2023-06-26T03:52:48;100204.94;;;19.22;76.76
75747;BME280;70632;52.232;21.038;2023-06-26T03:55:17;100200.41;;;19.35;75.86
75747;BME280;70632;52.232;21.038;2023-06-26T03:57:43;100195.63;;;19.26;75.75
75747;BME280;70632;52.232;21.038;2023-06-26T04:00:09;100210.56;;;19.19;76.09
75747;BME280;70632;52.232;21.038;2023-06-26T04:02:36;100205.94;;;19.21;76.23
75747;BME280;70632;52.232;21.038;2023-06-26T04:05:02;100202.13;;;19.24;76.26
75747;BME280;70632;52.232;21.038;2023-06-26T04:07:31;100206.69;;;19.36;75.43
75747;BME280;70632;52.232;21.038;2023-06-26T04:09:58;100202.88;;;19.38;75.11
75747;BME280;70632;52.232;21.038;2023-06-26T04:12:27;100203.06;;;19.49;74.41
75747;BME280;70632;52.232;21.038;2023-06-26T04:14:52;100204.44;;;19.55;73.91
75747;BME280;70632;52.232;21.038;2023-06-26T04:17:18;100203.69;;;19.53;73.90
75747;BME280;70632;52.232;21.038;2023-06-26T04:19:44;100195.25;;;19.57;73.79
75747;BME280;70632;52.232;21.038;2023-06-26T04:22:10;100213.31;;;19.70;74.13
75747;BME280;70632;52.232;21.038;2023-06-26T04:24:36;100214.59;;;19.77;73.66
75747;BME280;70632;52.232;21.038;2023-06-26T04:27:01;100206.47;;;19.89;72.79
75747;BME280;70632;52.232;21.038;2023-06-26T04:29:30;100215.56;;;19.76;71.26
75747;BME280;70632;52.232;21.038;2023-06-26T04:31:59;100208.66;;;19.72;71.88
75747;BME280;70632;52.232;21.038;2023-06-26T04:34:28;100210.25;;;19.87;71.81
75747;BME280;70632;52.232;21.038;2023-06-26T04:36:54;100208.94;;;19.92;71.12
75747;BME280;70632;52.232;21.038;2023-06-26T04:39:20;100216.25;;;20.03;70.70
75747;BME280;70632;52.232;21.038;2023-06-26T04:41:46;100213.84;;;20.11;70.24
75747;BME280;70632;52.232;21.038;2023-06-26T04:44:12;100209.63;;;20.20;70.21
75747;BME280;70632;52.232;21.038;2023-06-26T04:46:38;100211.44;;;20.32;69.70
75747;BME280;70632;52.232;21.038;2023-06-26T04:49:09;100211.00;;;20.38;69.08
75747;BME280;70632;52.232;21.038;2023-06-26T04:51:35;100201.53;;;20.43;68.99
75747;BME280;70632;52.232;21.038;2023-06-26T04:54:10;100201.53;;;20.43;69.30
75747;BME280;70632;52.232;21.038;2023-06-26T04:56:36;100204.25;;;20.43;68.72
75747;BME280;70632;52.232;21.038;2023-06-26T04:59:03;100201.97;;;20.50;68.26
75747;BME280;70632;52.232;21.038;2023-06-26T05:01:29;100209.91;;;20.64;68.33
75747;BME280;70632;52.232;21.038;2023-06-26T05:04:04;100205.38;;;20.76;67.99
75747;BME280;70632;52.232;21.038;2023-06-26T05:06:29;100214.28;;;20.78;68.20
75747;BME280;70632;52.232;21.038;2023-06-26T05:08:56;100202.22;;;20.82;67.88
75747;BME280;70632;52.232;21.038;2023-06-26T05:11:21;100198.13;;;20.76;67.62
75747;BME280;70632;52.232;21.038;2023-06-26T05:13:49;100215.47;;;20.97;67.30
75747;BME280;70632;52.232;21.038;2023-06-26T05:16:15;100214.09;;;21.03;65.62
75747;BME280;70632;52.232;21.038;2023-06-26T05:18:40;100206.72;;;21.05;64.87
75747;BME280;70632;52.232;21.038;2023-06-26T05:21:06;100211.81;;;21.10;64.28
75747;BME280;70632;52.232;21.038;2023-06-26T05:23:33;100206.25;;;21.11;63.69
75747;BME280;70632;52.232;21.038;2023-06-26T05:26:03;100213.94;;;21.17;63.33
75747;BME280;70632;52.232;21.038;2023-06-26T05:28:30;100207.91;;;21.25;63.09
75747;BME280;70632;52.232;21.038;2023-06-26T05:31:02;100208.81;;;21.36;63.18
75747;BME280;70632;52.232;21.038;2023-06-26T05:33:47;100195.25;;;21.47;61.75
75747;BME280;70632;52.232;21.038;2023-06-26T05:36:16;100203.03;;;21.41;61.86
75747;BME280;70632;52.232;21.038;2023-06-26T05:38:45;100205.38;;;21.68;61.11
75747;BME280;70632;52.232;21.038;2023-06-26T05:41:11;100199.69;;;21.71;60.31
75747;BME280;70632;52.232;21.038;2023-06-26T05:43:37;100206.13;;;21.81;59.58
75747;BME280;70632;52.232;21.038;2023-06-26T05:46:03;100203.16;;;21.84;59.38
75747;BME280;70632;52.232;21.038;2023-06-26T05:48:29;100197.00;;;21.82;59.91
75747;BME280;70632;52.232;21.038;2023-06-26T05:50:54;100203.53;;;21.90;59.41
75747;BME280;70632;52.232;21.038;2023-06-26T05:53:21;100194.66;;;22.00;58.94
75747;BME280;70632;52.232;21.038;2023-06-26T05:55:46;100179.00;;;21.92;58.85
75747;BME280;70632;52.232;21.038;2023-06-26T05:58:16;100195.16;;;21.82;59.70
75747;BME280;70632;52.232;21.038;2023-06-26T06:00:43;100184.91;;;22.08;58.86
75747;BME280;70632;52.232;21.038;2023-06-26T06:03:10;100178.22;;;22.12;58.60
75747;BME280;70632;52.232;21.038;2023-06-26T06:05:39;100180.91;;;22.34;58.32
75747;BME280;70632;52.232;21.038;2023-06-26T06:08:05;100172.53;;;22.26;58.50
75747;BME280;70632;52.232;21.038;2023-06-26T06:10:30;100185.53;;;22.44;58.07
75747;BME280;70632;52.232;21.038;2023-06-26T06:12:56;100188.25;;;22.55;58.00
75747;BME280;70632;52.232;21.038;2023-06-26T06:15:22;100174.63;;;22.66;57.63
75747;BME280;70632;52.232;21.038;2023-06-26T06:17:48;100186.94;;;22.81;57.84
75747;BME280;70632;52.232;21.038;2023-06-26T06:20:14;100184.63;;;22.97;56.53
75747;BME280;70632;52.232;21.038;2023-06-26T06:22:40;100179.13;;;23.08;56.05
75747;BME280;70632;52.232;21.038;2023-06-26T06:25:06;100175.06;;;23.23;55.53
75747;BME280;70632;52.232;21.038;2023-06-26T06:27:32;100170.41;;;23.35;55.38
75747;BME280;70632;52.232;21.038;2023-06-26T06:29:57;100182.31;;;23.55;53.92
75747;BME280;70632;52.232;21.038;2023-06-26T06:32:23;100173.59;;;23.61;52.56
75747;BME280;70632;52.232;21.038;2023-06-26T06:34:49;100179.50;;;23.66;51.48
75747;BME280;70632;52.232;21.038;2023-06-26T06:37:14;100179.94;;;23.71;51.70
75747;BME280;70632;52.232;21.038;2023-06-26T06:39:40;100171.41;;;23.85;50.47
75747;BME280;70632;52.232;21.038;2023-06-26T06:42:06;100165.59;;;23.69;49.30
75747;BME280;70632;52.232;21.038;2023-06-26T06:44:32;100167.41;;;23.89;49.38
75747;BME280;70632;52.232;21.038;2023-06-26T06:46:58;100171.72;;;24.01;47.98
75747;BME280;70632;52.232;21.038;2023-06-26T06:49:23;100164.00;;;24.06;47.58
75747;BME280;70632;52.232;21.038;2023-06-26T06:51:49;100171.69;;;23.92;46.90
75747;BME280;70632;52.232;21.038;2023-06-26T06:54:15;100163.41;;;23.93;46.79
75747;BME280;70632;52.232;21.038;2023-06-26T06:56:41;100168.50;;;24.17;46.93
75747;BME280;70632;52.232;21.038;2023-06-26T06:59:07;100171.09;;;24.28;46.92
75747;BME280;70632;52.232;21.038;2023-06-26T07:01:33;100170.97;;;24.30;46.80
75747;BME280;70632;52.232;21.038;2023-06-26T07:03:59;100159.66;;;24.44;46.46
75747;BME280;70632;52.232;21.038;2023-06-26T07:06:25;100157.81;;;24.54;46.08
75747;BME280;70632;52.232;21.038;2023-06-26T07:08:51;100159.81;;;24.42;45.68
75747;BME280;70632;52.232;21.038;2023-06-26T07:11:17;100160.50;;;24.25;44.96
75747;BME280;70632;52.232;21.038;2023-06-26T07:13:42;100166.22;;;24.22;45.20
75747;BME280;70632;52.232;21.038;2023-06-26T07:16:08;100155.78;;;24.37;45.58
75747;BME280;70632;52.232;21.038;2023-06-26T07:18:38;100155.22;;;24.62;45.46
75747;BME280;70632;52.232;21.038;2023-06-26T07:21:04;100156.94;;;24.73;45.15
75747;BME280;70632;52.232;21.038;2023-06-26T07:23:29;100152.09;;;24.86;44.71
75747;BME280;70632;52.232;21.038;2023-06-26T07:25:56;100158.38;;;24.96;43.66
75747;BME280;70632;52.232;21.038;2023-06-26T07:28:21;100141.59;;;25.00;43.28
75747;BME280;70632;52.232;21.038;2023-06-26T07:30:47;100153.50;;;25.09;42.78
75747;BME280;70632;52.232;21.038;2023-06-26T07:33:12;100159.94;;;25.17;42.72
75747;BME280;70632;52.232;21.038;2023-06-26T07:35:39;100152.00;;;25.24;42.38
75747;BME280;70632;52.232;21.038;2023-06-26T07:38:05;100155.16;;;25.39;41.87
75747;BME280;70632;52.232;21.038;2023-06-26T07:40:31;100150.81;;;25.46;41.31
75747;BME280;70632;52.232;21.038;2023-06-26T07:42:56;100154.50;;;25.64;40.95
75747;BME280;70632;52.232;21.038;2023-06-26T07:45:24;100154.22;;;25.67;40.24
75747;BME280;70632;52.232;21.038;2023-06-26T07:47:49;100151.00;;;25.81;39.53
75747;BME280;70632;52.232;21.038;2023-06-26T07:50:15;100155.56;;;25.90;39.26
75747;BME280;70632;52.232;21.038;2023-06-26T07:52:46;100152.03;;;26.07;38.60
75747;BME280;70632;52.232;21.038;2023-06-26T07:55:12;100150.22;;;26.61;37.33
75747;BME280;70632;52.232;21.038;2023-06-26T07:57:39;100158.19;;;27.08;36.82
75747;BME280;70632;52.232;21.038;2023-06-26T08:00:06;100155.94;;;27.03;36.65
75747;BME280;70632;52.232;21.038;2023-06-26T08:02:32;100142.97;;;26.87;37.37
75747;BME280;70632;52.232;21.038;2023-06-26T08:04:58;100139.75;;;26.74;36.80
75747;BME280;70632;52.232;21.038;2023-06-26T08:07:23;100154.44;;;26.38;37.89
75747;BME280;70632;52.232;21.038;2023-06-26T08:09:49;100151.63;;;26.47;37.83
75747;BME280;70632;52.232;21.038;2023-06-26T08:12:15;100146.59;;;26.25;38.24
75747;BME280;70632;52.232;21.038;2023-06-26T08:14:41;100149.44;;;26.06;38.33
75747;BME280;70632;52.232;21.038;2023-06-26T08:17:07;100145.06;;;26.13;38.39
75747;BME280;70632;52.232;21.038;2023-06-26T08:19:32;100149.97;;;26.19;38.35
75747;BME280;70632;52.232;21.038;2023-06-26T08:21:58;100154.81;;;26.25;38.36
75747;BME280;70632;52.232;21.038;2023-06-26T08:24:24;100144.94;;;25.87;37.80
75747;BME280;70632;52.232;21.038;2023-06-26T08:26:49;100140.16;;;25.89;36.62
75747;BME280;70632;52.232;21.038;2023-06-26T08:29:15;100150.88;;;25.73;37.12
75747;BME280;70632;52.232;21.038;2023-06-26T08:31:41;100144.09;;;25.77;36.26
75747;BME280;70632;52.232;21.038;2023-06-26T08:34:08;100132.41;;;25.85;37.09
75747;BME280;70632;52.232;21.038;2023-06-26T08:36:33;100137.38;;;26.26;36.20
75747;BME280;70632;52.232;21.038;2023-06-26T08:38:59;100136.94;;;26.03;35.95
75747;BME280;70632;52.232;21.038;2023-06-26T08:41:25;100133.94;;;26.77;35.36
75747;BME280;70632;52.232;21.038;2023-06-26T08:43:51;100137.31;;;27.07;36.12
75747;BME280;70632;52.232;21.038;2023-06-26T08:46:18;100130.75;;;27.25;35.53
75747;BME280;70632;52.232;21.038;2023-06-26T08:48:48;100136.28;;;27.51;35.13
75747;BME280;70632;52.232;21.038;2023-06-26T08:51:16;100134.38;;;28.19;33.97
75747;BME280;70632;52.232;21.038;2023-06-26T08:56:10;100120.59;;;29.02;32.07
75747;BME280;70632;52.232;21.038;2023-06-26T08:58:40;100128.66;;;29.36;31.55
75747;BME280;70632;52.232;21.038;2023-06-26T09:01:06;100121.28;;;29.28;31.78
75747;BME280;70632;52.232;21.038;2023-06-26T09:03:32;100128.31;;;29.86;30.74
75747;BME280;70632;52.232;21.038;2023-06-26T09:05:58;100112.97;;;29.60;30.91
75747;BME280;70632;52.232;21.038;2023-06-26T09:08:24;100115.88;;;30.67;28.46
75747;BME280;70632;52.232;21.038;2023-06-26T09:10:49;100122.09;;;32.39;25.08
75747;BME280;70632;52.232;21.038;2023-06-26T09:13:18;100117.63;;;35.13;21.77
75747;BME280;70632;52.232;21.038;2023-06-26T09:15:45;100115.41;;;35.87;21.23
75747;BME280;70632;52.232;21.038;2023-06-26T09:18:12;100106.56;;;33.78;23.25
75747;BME280;70632;52.232;21.038;2023-06-26T09:20:38;100101.72;;;32.04;25.71
75747;BME280;70632;52.232;21.038;2023-06-26T09:23:04;100103.47;;;30.10;28.77
75747;BME280;70632;52.232;21.038;2023-06-26T09:25:30;100103.47;;;30.10;29.26
75747;BME280;70632;52.232;21.038;2023-06-26T09:27:56;100113.25;;;29.65;28.52
75747;BME280;70632;52.232;21.038;2023-06-26T09:30:22;100105.66;;;29.12;29.23
75747;BME280;70632;52.232;21.038;2023-06-26T09:32:49;100107.34;;;27.90;31.61
75747;BME280;70632;52.232;21.038;2023-06-26T09:35:20;100098.88;;;28.10;31.86
75747;BME280;70632;52.232;21.038;2023-06-26T09:37:45;100102.25;;;27.62;31.69
75747;BME280;70632;52.232;21.038;2023-06-26T09:40:13;100093.38;;;27.68;32.56
75747;BME280;70632;52.232;21.038;2023-06-26T09:42:39;100099.16;;;27.99;31.84
75747;BME280;70632;52.232;21.038;2023-06-26T09:45:05;100101.75;;;28.08;32.11
75747;BME280;70632;52.232;21.038;2023-06-26T09:47:31;100092.44;;;28.51;30.67
75747;BME280;70632;52.232;21.038;2023-06-26T09:50:00;100087.91;;;28.18;31.19
75747;BME280;70632;52.232;21.038;2023-06-26T09:52:29;100089.00;;;28.49;31.36
75747;BME280;70632;52.232;21.038;2023-06-26T09:55:15;100081.09;;;28.30;31.82
75747;BME280;70632;52.232;21.038;2023-06-26T09:57:42;100074.59;;;28.31;31.26
75747;BME280;70632;52.232;21.038;2023-06-26T10:00:10;100097.53;;;27.46;33.24
75747;BME280;70632;52.232;21.038;2023-06-26T10:02:37;100092.66;;;27.06;34.10
75747;BME280;70632;52.232;21.038;2023-06-26T10:05:03;100085.38;;;27.15;34.25
75747;BME280;70632;52.232;21.038;2023-06-26T10:07:29;100094.44;;;27.15;34.27
75747;BME280;70632;52.232;21.038;2023-06-26T10:09:55;100086.97;;;27.25;33.78
75747;BME280;70632;52.232;21.038;2023-06-26T10:12:28;100092.09;;;27.88;32.32
75747;BME280;70632;52.232;21.038;2023-06-26T10:14:57;100084.81;;;28.13;32.12
75747;BME280;70632;52.232;21.038;2023-06-26T10:17:28;100079.38;;;28.37;32.00
75747;BME280;70632;52.232;21.038;2023-06-26T10:19:58;100069.09;;;28.31;31.24
75747;BME280;70632;52.232;21.038;2023-06-26T10:22:29;100065.84;;;28.27;31.89
75747;BME280;70632;52.232;21.038;2023-06-26T10:24:57;100069.81;;;27.83;32.49
75747;BME280;70632;52.232;21.038;2023-06-26T10:27:24;100077.16;;;27.82;32.99
75747;BME280;70632;52.232;21.038;2023-06-26T10:29:55;100068.63;;;27.93;31.74
75747;BME280;70632;52.232;21.038;2023-06-26T10:32:25;100062.56;;;28.16;29.43
75747;BME280;70632;52.232;21.038;2023-06-26T10:34:52;100054.84;;;28.11;30.20
75747;BME280;70632;52.232;21.038;2023-06-26T10:37:18;100059.78;;;28.08;28.71
75747;BME280;70632;52.232;21.038;2023-06-26T10:39:51;100050.59;;;28.57;28.51
75747;BME280;70632;52.232;21.038;2023-06-26T10:42:20;100045.63;;;28.69;28.23
75747;BME280;70632;52.232;21.038;2023-06-26T10:45:09;100051.94;;;29.02;28.57
75747;BME280;70632;52.232;21.038;2023-06-26T10:47:35;100049.19;;;29.02;27.71
75747;BME280;70632;52.232;21.038;2023-06-26T10:50:22;100053.03;;;28.93;29.83
75747;BME280;70632;52.232;21.038;2023-06-26T10:53:23;100031.25;;;28.75;30.33
75747;BME280;70632;52.232;21.038;2023-06-26T10:55:59;100050.44;;;28.91;30.68
75747;BME280;70632;52.232;21.038;2023-06-26T11:03:41;100042.84;;;28.12;30.05
75747;BME280;70632;52.232;21.038;2023-06-26T11:06:09;100038.50;;;28.02;30.71
75747;BME280;70632;52.232;21.038;2023-06-26T11:08:51;100034.81;;;28.51;29.98
75747;BME280;70632;52.232;21.038;2023-06-26T11:11:21;100026.25;;;28.30;30.33
75747;BME280;70632;52.232;21.038;2023-06-26T11:13:48;100032.06;;;28.19;30.76
75747;BME280;70632;52.232;21.038;2023-06-26T11:16:15;100034.44;;;28.22;30.26
75747;BME280;70632;52.232;21.038;2023-06-26T11:18:41;100025.88;;;28.49;30.57
75747;BME280;70632;52.232;21.038;2023-06-26T11:21:09;100033.22;;;29.05;29.36
75747;BME280;70632;52.232;21.038;2023-06-26T11:23:36;100019.56;;;28.73;30.17
75747;BME280;70632;52.232;21.038;2023-06-26T11:26:34;100025.72;;;28.18;30.91
75747;BME280;70632;52.232;21.038;2023-06-26T11:29:03;100023.75;;;27.95;31.28
75747;BME280;70632;52.232;21.038;2023-06-26T11:31:30;100022.13;;;27.60;31.65
75747;BME280;70632;52.232;21.038;2023-06-26T11:34:01;100018.53;;;28.33;31.04
75747;BME280;70632;52.232;21.038;2023-06-26T11:36:27;100024.44;;;28.05;31.42
75747;BME280;70632;52.232;21.038;2023-06-26T11:38:57;100025.47;;;27.87;30.82
75747;BME280;70632;52.232;21.038;2023-06-26T11:41:25;100010.66;;;27.56;31.28
75747;BME280;70632;52.232;21.038;2023-06-26T11:43:51;100007.13;;;27.80;30.99
75747;BME280;70632;52.232;21.038;2023-06-26T11:46:19;100016.63;;;27.52;31.64
75747;BME280;70632;52.232;21.038;2023-06-26T11:48:45;100021.81;;;27.37;31.43
75747;BME280;70632;52.232;21.038;2023-06-26T11:51:15;100023.03;;;27.42;30.99
75747;BME280;70632;52.232;21.038;2023-06-26T11:53:42;100021.25;;;27.59;31.29
75747;BME280;70632;52.232;21.038;2023-06-26T11:56:14;100014.69;;;30.24;26.96
75747;BME280;70632;52.232;21.038;2023-06-26T12:01:34;99988.16;;;31.06;24.89
75747;BME280;70632;52.232;21.038;2023-06-26T12:04:01;100001.81;;;30.47;24.85
75747;BME280;70632;52.232;21.038;2023-06-26T12:06:29;99987.97;;;29.79;26.20
75747;BME280;70632;52.232;21.038;2023-06-26T12:08:56;100001.44;;;29.27;26.45
75747;BME280;70632;52.232;21.038;2023-06-26T12:11:23;99985.34;;;29.16;27.19
75747;BME280;70632;52.232;21.038;2023-06-26T12:13:50;99984.97;;;29.19;26.74
75747;BME280;70632;52.232;21.038;2023-06-26T12:16:17;99987.03;;;29.17;27.05
75747;BME280;70632;52.232;21.038;2023-06-26T12:18:42;99972.00;;;29.05;26.84
75747;BME280;70632;52.232;21.038;2023-06-26T12:21:27;99980.09;;;28.90;27.84
75747;BME280;70632;52.232;21.038;2023-06-26T12:23:59;99977.41;;;29.21;27.66
75747;BME280;70632;52.232;21.038;2023-06-26T12:26:26;99989.19;;;28.82;28.50
75747;BME280;70632;52.232;21.038;2023-06-26T12:28:52;99980.97;;;28.58;28.70
75747;BME280;70632;52.232;21.038;2023-06-26T12:31:20;99979.63;;;28.30;28.91
75747;BME280;70632;52.232;21.038;2023-06-26T12:33:47;99981.22;;;29.28;27.83
75747;BME280;70632;52.232;21.038;2023-06-26T12:36:14;99973.25;;;30.03;26.65
75747;BME280;70632;52.232;21.038;2023-06-26T12:38:45;99972.94;;;30.43;26.63
75747;BME280;70632;52.232;21.038;2023-06-26T12:41:15;99973.34;;;29.87;26.75
75747;BME280;70632;52.232;21.038;2023-06-26T12:43:41;99973.41;;;29.70;27.25
75747;BME280;70632;52.232;21.038;2023-06-26T12:46:07;99965.56;;;29.37;27.18
75747;BME280;70632;52.232;21.038;2023-06-26T12:48:38;99964.56;;;29.91;27.19
75747;BME280;70632;52.232;21.038;2023-06-26T12:51:16;99969.09;;;29.45;26.68
75747;BME280;70632;52.232;21.038;2023-06-26T12:53:42;99970.25;;;29.82;27.29
75747;BME280;70632;52.232;21.038;2023-06-26T12:56:08;99959.94;;;29.92;27.19
75747;BME280;70632;52.232;21.038;2023-06-26T12:58:35;99965.25;;;29.85;27.44